sensor_id;sensor_type;location;lat;lon;timestamp;P1;durP1;ratioP1;P2;durP2;ratioP2
34725;SDS011;20951;50.818;4.344;2023-09-07T00:00:22;7.53;;;5.03;;
34725;SDS011;20951;50.818;4.344;2023-09-07T00:02:48;7.78;;;5.00;;
34725;SDS011;20951;50.818;4.344;2023-09-07T00:05:14;5.72;;;4.50;;
34725;SDS011;20951;50.818;4.344;2023-09-07T00:07:40;5.63;;;4.32;;
34725;SDS011;20951;50.818;4.344;2023-09-07T00:10:06;6.35;;;4.82;;
34725;SDS011;20951;50.818;4.344;2023-09-07T00:12:32;8.40;;;4.32;;
34725;SDS011;20951;50.818;4.344;2023-09-07T00:14:58;7.40;;;4.35;;
34725;SDS011;20951;50.818;4.344;2023-09-07T00:17:25;6.47;;;4.25;;
34725;SDS011;20951;50.818;4.344;2023-09-07T00:19:51;6.80;;;4.55;;
34725;SDS011;20951;50.818;4.344;2023-09-07T00:22:17;7.07;;;4.00;;
34725;SDS011;20951;50.818;4.344;2023-09-07T00:24:44;7.97;;;4.40;;
34725;SDS011;20951;50.818;4.344;2023-09-07T00:27:10;7.55;;;4.30;;
34725;SDS011;20951;50.818;4.344;2023-09-07T00:29:37;7.35;;;4.40;;
34725;SDS011;20951;50.818;4.344;2023-09-07T00:32:03;7.88;;;4.75;;
34725;SDS011;20951;50.818;4.344;2023-09-07T00:34:29;6.13;;;4.22;;
34725;SDS011;20951;50.818;4.344;2023-09-07T00:36:55;6.95;;;4.50;;
34725;SDS011;20951;50.818;4.344;2023-09-07T00:39:21;5.65;;;4.20;;
34725;SDS011;20951;50.818;4.344;2023-09-07T00:41:47;7.07;;;4.10;;
34725;SDS011;20951;50.818;4.344;2023-09-07T00:44:13;7.82;;;4.10;;
34725;SDS011;20951;50.818;4.344;2023-09-07T00:46:39;5.75;;;3.97;;
34725;SDS011;20951;50.818;4.344;2023-09-07T00:49:04;6.90;;;4.00;;
34725;SDS011;20951;50.818;4.344;2023-09-07T00:51:30;6.05;;;4.07;;
34725;SDS011;20951;50.818;4.344;2023-09-07T00:53:57;6.20;;;3.95;;
34725;SDS011;20951;50.818;4.344;2023-09-07T00:56:24;7.70;;;3.75;;
34725;SDS011;20951;50.818;4.344;2023-09-07T00:58:52;6.93;;;3.75;;
34725;SDS011;20951;50.818;4.344;2023-09-07T01:01:19;5.50;;;3.53;;
34725;SDS011;20951;50.818;4.344;2023-09-07T01:03:47;6.30;;;3.65;;
34725;SDS011;20951;50.818;4.344;2023-09-07T01:06:14;6.10;;;4.22;;
34725;SDS011;20951;50.818;4.344;2023-09-07T01:08:46;8.15;;;4.10;;
34725;SDS011;20951;50.818;4.344;2023-09-07T01:11:18;6.93;;;3.80;;
34725;SDS011;20951;50.818;4.344;2023-09-07T01:13:51;6.03;;;4.13;;
34725;SDS011;20951;50.818;4.344;2023-09-07T01:16:19;5.95;;;3.90;;
34725;SDS011;20951;50.818;4.344;2023-09-07T01:18:45;5.30;;;4.10;;
34725;SDS011;20951;50.818;4.344;2023-09-07T01:21:12;5.95;;;4.03;;
34725;SDS011;20951;50.818;4.344;2023-09-07T01:23:42;7.70;;;4.03;;
34725;SDS011;20951;50.818;4.344;2023-09-07T01:26:09;7.10;;;4.05;;
34725;SDS011;20951;50.818;4.344;2023-09-07T01:28:36;8.55;;;4.18;;
34725;SDS011;20951;50.818;4.344;2023-09-07T01:31:03;6.45;;;4.55;;
34725;SDS011;20951;50.818;4.344;2023-09-07T01:33:29;5.45;;;3.80;;
34725;SDS011;20951;50.818;4.344;2023-09-07T01:35:56;7.45;;;4.25;;
34725;SDS011;20951;50.818;4.344;2023-09-07T01:38:22;8.68;;;4.25;;
34725;SDS011;20951;50.818;4.344;2023-09-07T01:40:48;7.05;;;4.18;;
34725;SDS011;20951;50.818;4.344;2023-09-07T01:43:13;7.70;;;4.25;;
34725;SDS011;20951;50.818;4.344;2023-09-07T01:45:39;6.25;;;4.03;;
34725;SDS011;20951;50.818;4.344;2023-09-07T01:48:12;8.32;;;4.35;;
34725;SDS011;20951;50.818;4.344;2023-09-07T01:50:39;7.55;;;4.35;;
34725;SDS011;20951;50.818;4.344;2023-09-07T01:53:05;6.30;;;4.03;;
34725;SDS011;20951;50.818;4.344;2023-09-07T01:55:31;7.50;;;4.40;;
34725;SDS011;20951;50.818;4.344;2023-09-07T01:57:57;6.00;;;4.32;;
34725;SDS011;20951;50.818;4.344;2023-09-07T02:00:22;5.90;;;4.00;;
34725;SDS011;20951;50.818;4.344;2023-09-07T02:02:49;6.55;;;3.80;;
34725;SDS011;20951;50.818;4.344;2023-09-07T02:05:14;8.15;;;3.80;;
34725;SDS011;20951;50.818;4.344;2023-09-07T02:07:41;7.35;;;4.00;;
34725;SDS011;20951;50.818;4.344;2023-09-07T02:10:07;5.38;;;3.95;;
34725;SDS011;20951;50.818;4.344;2023-09-07T02:12:34;6.05;;;3.95;;
34725;SDS011;20951;50.818;4.344;2023-09-07T02:15:00;7.55;;;4.35;;
34725;SDS011;20951;50.818;4.344;2023-09-07T02:17:28;7.72;;;4.15;;
34725;SDS011;20951;50.818;4.344;2023-09-07T02:19:53;5.78;;;4.40;;
34725;SDS011;20951;50.818;4.344;2023-09-07T02:22:19;8.40;;;4.50;;
34725;SDS011;20951;50.818;4.344;2023-09-07T02:24:45;8.18;;;4.10;;
34725;SDS011;20951;50.818;4.344;2023-09-07T02:27:11;6.57;;;4.20;;
34725;SDS011;20951;50.818;4.344;2023-09-07T02:29:36;5.18;;;4.30;;
34725;SDS011;20951;50.818;4.344;2023-09-07T02:32:02;6.68;;;4.18;;
34725;SDS011;20951;50.818;4.344;2023-09-07T02:34:29;7.95;;;4.78;;
34725;SDS011;20951;50.818;4.344;2023-09-07T02:36:59;7.72;;;4.28;;
34725;SDS011;20951;50.818;4.344;2023-09-07T02:39:24;6.30;;;4.38;;
34725;SDS011;20951;50.818;4.344;2023-09-07T02:41:51;5.30;;;4.20;;
34725;SDS011;20951;50.818;4.344;2023-09-07T02:44:17;6.45;;;4.10;;
34725;SDS011;20951;50.818;4.344;2023-09-07T02:46:43;8.48;;;4.45;;
34725;SDS011;20951;50.818;4.344;2023-09-07T02:49:09;8.15;;;4.50;;
34725;SDS011;20951;50.818;4.344;2023-09-07T02:51:35;7.07;;;4.55;;
34725;SDS011;20951;50.818;4.344;2023-09-07T02:54:01;7.05;;;4.70;;
34725;SDS011;20951;50.818;4.344;2023-09-07T02:56:28;7.95;;;4.05;;
34725;SDS011;20951;50.818;4.344;2023-09-07T02:58:54;8.77;;;4.53;;
34725;SDS011;20951;50.818;4.344;2023-09-07T03:01:20;7.28;;;4.50;;
34725;SDS011;20951;50.818;4.344;2023-09-07T03:03:47;6.45;;;4.38;;
34725;SDS011;20951;50.818;4.344;2023-09-07T03:06:13;9.40;;;4.68;;
34725;SDS011;20951;50.818;4.344;2023-09-07T03:08:41;7.63;;;4.22;;
34725;SDS011;20951;50.818;4.344;2023-09-07T03:11:10;7.18;;;4.82;;
34725;SDS011;20951;50.818;4.344;2023-09-07T03:13:36;7.80;;;4.43;;
34725;SDS011;20951;50.818;4.344;2023-09-07T03:16:02;8.32;;;4.55;;
34725;SDS011;20951;50.818;4.344;2023-09-07T03:18:29;8.40;;;4.95;;
34725;SDS011;20951;50.818;4.344;2023-09-07T03:20:57;6.60;;;4.30;;
34725;SDS011;20951;50.818;4.344;2023-09-07T03:23:25;9.75;;;4.93;;
34725;SDS011;20951;50.818;4.344;2023-09-07T03:25:52;8.27;;;4.95;;
34725;SDS011;20951;50.818;4.344;2023-09-07T03:28:17;7.10;;;5.20;;
34725;SDS011;20951;50.818;4.344;2023-09-07T03:30:43;7.80;;;4.60;;
34725;SDS011;20951;50.818;4.344;2023-09-07T03:33:09;7.53;;;5.35;;
34725;SDS011;20951;50.818;4.344;2023-09-07T03:35:35;6.40;;;4.40;;
34725;SDS011;20951;50.818;4.344;2023-09-07T03:38:00;6.80;;;4.78;;
34725;SDS011;20951;50.818;4.344;2023-09-07T03:40:26;6.38;;;4.70;;
34725;SDS011;20951;50.818;4.344;2023-09-07T03:42:52;7.80;;;4.93;;
34725;SDS011;20951;50.818;4.344;2023-09-07T03:45:18;6.68;;;4.93;;
34725;SDS011;20951;50.818;4.344;2023-09-07T03:47:44;7.68;;;4.97;;
34725;SDS011;20951;50.818;4.344;2023-09-07T03:50:09;7.65;;;4.90;;
34725;SDS011;20951;50.818;4.344;2023-09-07T03:52:35;9.70;;;5.10;;
34725;SDS011;20951;50.818;4.344;2023-09-07T03:55:02;7.15;;;5.00;;
34725;SDS011;20951;50.818;4.344;2023-09-07T03:57:27;7.20;;;5.15;;
34725;SDS011;20951;50.818;4.344;2023-09-07T03:59:54;6.60;;;4.97;;
34725;SDS011;20951;50.818;4.344;2023-09-07T04:02:23;11.93;;;5.40;;
34725;SDS011;20951;50.818;4.344;2023-09-07T04:04:53;9.10;;;5.50;;
34725;SDS011;20951;50.818;4.344;2023-09-07T04:07:21;9.20;;;5.28;;
34725;SDS011;20951;50.818;4.344;2023-09-07T04:09:47;6.38;;;4.57;;
34725;SDS011;20951;50.818;4.344;2023-09-07T04:12:15;8.80;;;5.53;;
34725;SDS011;20951;50.818;4.344;2023-09-07T04:14:41;8.13;;;5.60;;
34725;SDS011;20951;50.818;4.344;2023-09-07T04:17:07;7.65;;;5.25;;
34725;SDS011;20951;50.818;4.344;2023-09-07T04:19:33;8.20;;;5.40;;
34725;SDS011;20951;50.818;4.344;2023-09-07T04:22:00;8.15;;;5.60;;
34725;SDS011;20951;50.818;4.344;2023-09-07T04:24:26;7.35;;;5.28;;
34725;SDS011;20951;50.818;4.344;2023-09-07T04:26:58;9.23;;;5.80;;
34725;SDS011;20951;50.818;4.344;2023-09-07T04:29:26;10.07;;;5.90;;
34725;SDS011;20951;50.818;4.344;2023-09-07T04:31:52;9.25;;;5.00;;
34725;SDS011;20951;50.818;4.344;2023-09-07T04:34:18;9.93;;;5.40;;
34725;SDS011;20951;50.818;4.344;2023-09-07T04:36:46;9.90;;;5.78;;
34725;SDS011;20951;50.818;4.344;2023-09-07T04:39:11;9.63;;;5.63;;
34725;SDS011;20951;50.818;4.344;2023-09-07T04:41:39;8.43;;;5.68;;
34725;SDS011;20951;50.818;4.344;2023-09-07T04:44:06;10.48;;;5.90;;
34725;SDS011;20951;50.818;4.344;2023-09-07T04:46:31;7.75;;;5.60;;
34725;SDS011;20951;50.818;4.344;2023-09-07T04:48:57;8.13;;;5.50;;
34725;SDS011;20951;50.818;4.344;2023-09-07T04:51:23;8.98;;;6.05;;
34725;SDS011;20951;50.818;4.344;2023-09-07T04:53:50;10.23;;;5.88;;
34725;SDS011;20951;50.818;4.344;2023-09-07T04:56:16;10.23;;;6.10;;
34725;SDS011;20951;50.818;4.344;2023-09-07T04:58:42;9.35;;;6.22;;
34725;SDS011;20951;50.818;4.344;2023-09-07T05:01:09;7.03;;;5.53;;
34725;SDS011;20951;50.818;4.344;2023-09-07T05:03:36;9.40;;;5.78;;
34725;SDS011;20951;50.818;4.344;2023-09-07T05:06:03;9.55;;;5.95;;
34725;SDS011;20951;50.818;4.344;2023-09-07T05:08:29;9.18;;;6.78;;
34725;SDS011;20951;50.818;4.344;2023-09-07T05:10:55;8.82;;;6.10;;
34725;SDS011;20951;50.818;4.344;2023-09-07T05:13:25;15.45;;;6.00;;
34725;SDS011;20951;50.818;4.344;2023-09-07T05:15:52;12.85;;;7.00;;
34725;SDS011;20951;50.818;4.344;2023-09-07T05:18:19;11.68;;;6.28;;
34725;SDS011;20951;50.818;4.344;2023-09-07T05:20:45;12.48;;;6.50;;
34725;SDS011;20951;50.818;4.344;2023-09-07T05:23:13;10.43;;;6.07;;
34725;SDS011;20951;50.818;4.344;2023-09-07T05:25:44;9.45;;;5.90;;
34725;SDS011;20951;50.818;4.344;2023-09-07T05:28:11;12.93;;;6.63;;
34725;SDS011;20951;50.818;4.344;2023-09-07T05:30:42;10.95;;;6.88;;
34725;SDS011;20951;50.818;4.344;2023-09-07T05:33:12;13.23;;;6.63;;
34725;SDS011;20951;50.818;4.344;2023-09-07T05:35:39;11.23;;;6.70;;
34725;SDS011;20951;50.818;4.344;2023-09-07T05:38:06;10.00;;;6.72;;
34725;SDS011;20951;50.818;4.344;2023-09-07T05:40:36;11.18;;;6.22;;
34725;SDS011;20951;50.818;4.344;2023-09-07T05:43:03;10.75;;;6.93;;
34725;SDS011;20951;50.818;4.344;2023-09-07T05:45:30;14.70;;;6.72;;
34725;SDS011;20951;50.818;4.344;2023-09-07T05:47:59;9.40;;;6.25;;
34725;SDS011;20951;50.818;4.344;2023-09-07T05:50:24;10.82;;;6.50;;
34725;SDS011;20951;50.818;4.344;2023-09-07T05:52:51;9.57;;;6.40;;
34725;SDS011;20951;50.818;4.344;2023-09-07T05:55:16;9.90;;;6.50;;
34725;SDS011;20951;50.818;4.344;2023-09-07T05:57:42;7.97;;;5.90;;
34725;SDS011;20951;50.818;4.344;2023-09-07T06:00:08;10.52;;;6.05;;
34725;SDS011;20951;50.818;4.344;2023-09-07T06:02:34;10.52;;;5.97;;
34725;SDS011;20951;50.818;4.344;2023-09-07T06:05:01;9.65;;;5.70;;
34725;SDS011;20951;50.818;4.344;2023-09-07T06:07:27;10.40;;;5.85;;
34725;SDS011;20951;50.818;4.344;2023-09-07T06:09:53;9.23;;;5.78;;
34725;SDS011;20951;50.818;4.344;2023-09-07T06:12:18;9.40;;;5.68;;
34725;SDS011;20951;50.818;4.344;2023-09-07T06:14:44;9.38;;;6.03;;
34725;SDS011;20951;50.818;4.344;2023-09-07T06:17:11;8.77;;;5.68;;
34725;SDS011;20951;50.818;4.344;2023-09-07T06:19:37;9.35;;;6.20;;
34725;SDS011;20951;50.818;4.344;2023-09-07T06:22:03;9.70;;;6.65;;
34725;SDS011;20951;50.818;4.344;2023-09-07T06:24:29;10.77;;;5.72;;
34725;SDS011;20951;50.818;4.344;2023-09-07T06:26:55;9.93;;;6.50;;
34725;SDS011;20951;50.818;4.344;2023-09-07T06:29:21;10.73;;;6.35;;
34725;SDS011;20951;50.818;4.344;2023-09-07T06:31:46;8.38;;;5.60;;
34725;SDS011;20951;50.818;4.344;2023-09-07T06:34:15;9.27;;;5.95;;
34725;SDS011;20951;50.818;4.344;2023-09-07T06:36:41;9.80;;;6.10;;
34725;SDS011;20951;50.818;4.344;2023-09-07T06:39:08;7.90;;;5.57;;
34725;SDS011;20951;50.818;4.344;2023-09-07T06:41:35;9.63;;;5.97;;
34725;SDS011;20951;50.818;4.344;2023-09-07T06:44:01;11.75;;;5.88;;
34725;SDS011;20951;50.818;4.344;2023-09-07T06:46:27;8.95;;;6.25;;
34725;SDS011;20951;50.818;4.344;2023-09-07T06:48:52;8.15;;;6.00;;
34725;SDS011;20951;50.818;4.344;2023-09-07T06:51:18;9.77;;;6.28;;
34725;SDS011;20951;50.818;4.344;2023-09-07T06:53:44;8.95;;;5.70;;
34725;SDS011;20951;50.818;4.344;2023-09-07T06:56:10;8.55;;;5.57;;
34725;SDS011;20951;50.818;4.344;2023-09-07T06:58:35;12.40;;;5.82;;
34725;SDS011;20951;50.818;4.344;2023-09-07T07:01:02;16.13;;;5.75;;
34725;SDS011;20951;50.818;4.344;2023-09-07T07:03:29;14.23;;;5.55;;
34725;SDS011;20951;50.818;4.344;2023-09-07T07:05:56;9.65;;;5.65;;
34725;SDS011;20951;50.818;4.344;2023-09-07T07:08:22;11.68;;;6.10;;
34725;SDS011;20951;50.818;4.344;2023-09-07T07:10:48;18.30;;;6.38;;
34725;SDS011;20951;50.818;4.344;2023-09-07T07:13:14;11.02;;;6.00;;
34725;SDS011;20951;50.818;4.344;2023-09-07T07:15:40;13.45;;;5.93;;
34725;SDS011;20951;50.818;4.344;2023-09-07T07:18:06;11.18;;;5.97;;
34725;SDS011;20951;50.818;4.344;2023-09-07T07:20:37;9.38;;;5.40;;
34725;SDS011;20951;50.818;4.344;2023-09-07T07:23:05;13.65;;;5.78;;
34725;SDS011;20951;50.818;4.344;2023-09-07T07:25:35;8.00;;;4.97;;
34725;SDS011;20951;50.818;4.344;2023-09-07T07:28:02;9.27;;;5.18;;
34725;SDS011;20951;50.818;4.344;2023-09-07T07:30:32;7.45;;;4.53;;
34725;SDS011;20951;50.818;4.344;2023-09-07T07:32:59;8.98;;;4.53;;
34725;SDS011;20951;50.818;4.344;2023-09-07T07:35:25;11.93;;;4.50;;
34725;SDS011;20951;50.818;4.344;2023-09-07T07:37:50;8.27;;;4.53;;
34725;SDS011;20951;50.818;4.344;2023-09-07T07:40:16;9.65;;;4.20;;
34725;SDS011;20951;50.818;4.344;2023-09-07T07:42:46;10.07;;;4.50;;
34725;SDS011;20951;50.818;4.344;2023-09-07T07:45:12;7.13;;;4.22;;
34725;SDS011;20951;50.818;4.344;2023-09-07T07:47:39;7.72;;;4.47;;
34725;SDS011;20951;50.818;4.344;2023-09-07T07:50:06;8.57;;;3.90;;
34725;SDS011;20951;50.818;4.344;2023-09-07T07:52:32;9.38;;;3.80;;
34725;SDS011;20951;50.818;4.344;2023-09-07T07:54:59;8.35;;;4.07;;
34725;SDS011;20951;50.818;4.344;2023-09-07T07:57:24;9.93;;;3.65;;
34725;SDS011;20951;50.818;4.344;2023-09-07T07:59:50;7.40;;;3.80;;
34725;SDS011;20951;50.818;4.344;2023-09-07T08:02:16;5.15;;;3.47;;
34725;SDS011;20951;50.818;4.344;2023-09-07T08:04:42;5.32;;;3.30;;
34725;SDS011;20951;50.818;4.344;2023-09-07T08:07:07;13.02;;;4.20;;
34725;SDS011;20951;50.818;4.344;2023-09-07T08:09:34;4.97;;;3.63;;
34725;SDS011;20951;50.818;4.344;2023-09-07T08:12:00;10.38;;;3.97;;
34725;SDS011;20951;50.818;4.344;2023-09-07T08:14:30;6.03;;;3.40;;
34725;SDS011;20951;50.818;4.344;2023-09-07T08:16:59;6.03;;;3.50;;
34725;SDS011;20951;50.818;4.344;2023-09-07T08:19:26;6.35;;;3.13;;
34725;SDS011;20951;50.818;4.344;2023-09-07T08:21:56;7.47;;;3.28;;
34725;SDS011;20951;50.818;4.344;2023-09-07T08:24:24;7.53;;;3.70;;
34725;SDS011;20951;50.818;4.344;2023-09-07T08:26:50;6.00;;;3.20;;
34725;SDS011;20951;50.818;4.344;2023-09-07T08:29:19;7.38;;;3.05;;
34725;SDS011;20951;50.818;4.344;2023-09-07T08:31:45;6.25;;;3.20;;
34725;SDS011;20951;50.818;4.344;2023-09-07T08:34:13;10.35;;;3.22;;
34725;SDS011;20951;50.818;4.344;2023-09-07T08:36:44;10.93;;;3.25;;
34725;SDS011;20951;50.818;4.344;2023-09-07T08:39:12;6.32;;;2.78;;
34725;SDS011;20951;50.818;4.344;2023-09-07T08:41:41;6.07;;;3.10;;
34725;SDS011;20951;50.818;4.344;2023-09-07T08:44:11;4.50;;;2.80;;
34725;SDS011;20951;50.818;4.344;2023-09-07T08:46:39;4.22;;;2.75;;
34725;SDS011;20951;50.818;4.344;2023-09-07T08:49:06;8.35;;;2.90;;
34725;SDS011;20951;50.818;4.344;2023-09-07T08:51:32;5.00;;;2.78;;
34725;SDS011;20951;50.818;4.344;2023-09-07T08:54:01;7.20;;;2.65;;
34725;SDS011;20951;50.818;4.344;2023-09-07T08:56:27;6.35;;;2.80;;
34725;SDS011;20951;50.818;4.344;2023-09-07T08:58:53;6.65;;;2.88;;
34725;SDS011;20951;50.818;4.344;2023-09-07T09:01:19;6.45;;;2.50;;
34725;SDS011;20951;50.818;4.344;2023-09-07T09:03:48;7.78;;;2.97;;
34725;SDS011;20951;50.818;4.344;2023-09-07T09:06:16;6.75;;;2.80;;
34725;SDS011;20951;50.818;4.344;2023-09-07T09:08:50;7.18;;;2.55;;
34725;SDS011;20951;50.818;4.344;2023-09-07T09:11:19;4.28;;;2.70;;
34725;SDS011;20951;50.818;4.344;2023-09-07T09:13:46;5.63;;;2.97;;
34725;SDS011;20951;50.818;4.344;2023-09-07T09:16:12;6.32;;;2.40;;
34725;SDS011;20951;50.818;4.344;2023-09-07T09:18:52;7.15;;;2.80;;
34725;SDS011;20951;50.818;4.344;2023-09-07T09:21:20;6.15;;;2.60;;
34725;SDS011;20951;50.818;4.344;2023-09-07T09:23:52;4.85;;;2.63;;
34725;SDS011;20951;50.818;4.344;2023-09-07T09:26:22;5.82;;;2.90;;
34725;SDS011;20951;50.818;4.344;2023-09-07T09:28:48;6.18;;;2.90;;
34725;SDS011;20951;50.818;4.344;2023-09-07T09:31:17;4.25;;;2.80;;
34725;SDS011;20951;50.818;4.344;2023-09-07T09:33:47;4.68;;;2.88;;
34725;SDS011;20951;50.818;4.344;2023-09-07T09:36:13;5.28;;;2.88;;
34725;SDS011;20951;50.818;4.344;2023-09-07T09:38:39;9.43;;;3.15;;
34725;SDS011;20951;50.818;4.344;2023-09-07T09:41:13;3.97;;;2.53;;
34725;SDS011;20951;50.818;4.344;2023-09-07T09:43:39;4.05;;;2.70;;
34725;SDS011;20951;50.818;4.344;2023-09-07T09:46:05;4.35;;;2.65;;
34725;SDS011;20951;50.818;4.344;2023-09-07T09:48:33;6.25;;;2.50;;
34725;SDS011;20951;50.818;4.344;2023-09-07T09:51:06;6.20;;;2.78;;
34725;SDS011;20951;50.818;4.344;2023-09-07T09:53:33;7.03;;;2.90;;
34725;SDS011;20951;50.818;4.344;2023-09-07T09:55:58;9.80;;;2.88;;
34725;SDS011;20951;50.818;4.344;2023-09-07T09:58:24;4.78;;;2.97;;
34725;SDS011;20951;50.818;4.344;2023-09-07T10:00:53;8.52;;;3.25;;
34725;SDS011;20951;50.818;4.344;2023-09-07T10:03:37;13.50;;;2.97;;
34725;SDS011;20951;50.818;4.344;2023-09-07T10:06:18;4.68;;;3.13;;
34725;SDS011;20951;50.818;4.344;2023-09-07T10:08:58;8.77;;;2.90;;
34725;SDS011;20951;50.818;4.344;2023-09-07T10:11:36;8.90;;;3.10;;
34725;SDS011;20951;50.818;4.344;2023-09-07T10:14:03;6.57;;;3.08;;
34725;SDS011;20951;50.818;4.344;2023-09-07T10:16:43;7.85;;;2.70;;
34725;SDS011;20951;50.818;4.344;2023-09-07T10:19:20;9.23;;;3.10;;
34725;SDS011;20951;50.818;4.344;2023-09-07T10:21:47;4.38;;;3.10;;
34725;SDS011;20951;50.818;4.344;2023-09-07T10:24:34;4.85;;;3.05;;
34725;SDS011;20951;50.818;4.344;2023-09-07T10:27:05;5.38;;;2.78;;
34725;SDS011;20951;50.818;4.344;2023-09-07T10:29:42;6.57;;;3.20;;
34725;SDS011;20951;50.818;4.344;2023-09-07T10:32:12;4.35;;;3.00;;
34725;SDS011;20951;50.818;4.344;2023-09-07T10:34:40;4.18;;;2.85;;
34725;SDS011;20951;50.818;4.344;2023-09-07T10:37:17;5.55;;;3.05;;
34725;SDS011;20951;50.818;4.344;2023-09-07T10:39:44;5.75;;;3.00;;
34725;SDS011;20951;50.818;4.344;2023-09-07T10:42:23;6.22;;;3.10;;
34725;SDS011;20951;50.818;4.344;2023-09-07T10:44:49;7.70;;;3.00;;
34725;SDS011;20951;50.818;4.344;2023-09-07T10:47:15;4.95;;;2.88;;
34725;SDS011;20951;50.818;4.344;2023-09-07T10:49:41;5.55;;;3.00;;
34725;SDS011;20951;50.818;4.344;2023-09-07T10:52:07;5.15;;;3.05;;
34725;SDS011;20951;50.818;4.344;2023-09-07T10:54:33;4.70;;;2.92;;
34725;SDS011;20951;50.818;4.344;2023-09-07T10:57:07;6.50;;;2.90;;
34725;SDS011;20951;50.818;4.344;2023-09-07T10:59:38;4.82;;;2.67;;
34725;SDS011;20951;50.818;4.344;2023-09-07T11:02:09;6.18;;;3.10;;
34725;SDS011;20951;50.818;4.344;2023-09-07T11:04:35;4.38;;;2.70;;
34725;SDS011;20951;50.818;4.344;2023-09-07T11:07:00;6.22;;;2.90;;
34725;SDS011;20951;50.818;4.344;2023-09-07T11:09:29;6.03;;;2.72;;
34725;SDS011;20951;50.818;4.344;2023-09-07T11:11:55;5.90;;;3.10;;
34725;SDS011;20951;50.818;4.344;2023-09-07T11:14:22;4.72;;;2.97;;
34725;SDS011;20951;50.818;4.344;2023-09-07T11:16:55;4.18;;;2.70;;
34725;SDS011;20951;50.818;4.344;2023-09-07T11:19:21;4.97;;;2.70;;
34725;SDS011;20951;50.818;4.344;2023-09-07T11:21:47;7.40;;;3.05;;
34725;SDS011;20951;50.818;4.344;2023-09-07T11:24:18;6.15;;;2.88;;
34725;SDS011;20951;50.818;4.344;2023-09-07T11:26:45;6.47;;;2.70;;
34725;SDS011;20951;50.818;4.344;2023-09-07T11:29:14;5.35;;;3.05;;
34725;SDS011;20951;50.818;4.344;2023-09-07T11:31:44;5.70;;;2.60;;
34725;SDS011;20951;50.818;4.344;2023-09-07T11:34:12;5.40;;;2.83;;
34725;SDS011;20951;50.818;4.344;2023-09-07T11:36:42;5.40;;;3.10;;
34725;SDS011;20951;50.818;4.344;2023-09-07T11:39:08;8.63;;;2.85;;
34725;SDS011;20951;50.818;4.344;2023-09-07T11:41:43;4.22;;;2.70;;
34725;SDS011;20951;50.818;4.344;2023-09-07T11:44:11;6.03;;;2.67;;
34725;SDS011;20951;50.818;4.344;2023-09-07T11:46:37;5.40;;;2.35;;
34725;SDS011;20951;50.818;4.344;2023-09-07T11:49:03;6.63;;;2.67;;
34725;SDS011;20951;50.818;4.344;2023-09-07T11:51:34;7.13;;;2.35;;
34725;SDS011;20951;50.818;4.344;2023-09-07T11:54:01;6.93;;;2.78;;
34725;SDS011;20951;50.818;4.344;2023-09-07T11:56:27;6.05;;;2.80;;
34725;SDS011;20951;50.818;4.344;2023-09-07T11:58:53;6.82;;;2.85;;
34725;SDS011;20951;50.818;4.344;2023-09-07T12:01:23;5.22;;;2.50;;
34725;SDS011;20951;50.818;4.344;2023-09-07T12:03:49;5.78;;;2.53;;
34725;SDS011;20951;50.818;4.344;2023-09-07T12:06:15;4.78;;;2.60;;
34725;SDS011;20951;50.818;4.344;2023-09-07T12:08:41;6.18;;;2.40;;
34725;SDS011;20951;50.818;4.344;2023-09-07T12:11:22;4.97;;;2.55;;
34725;SDS011;20951;50.818;4.344;2023-09-07T12:13:48;6.13;;;2.55;;
34725;SDS011;20951;50.818;4.344;2023-09-07T12:16:14;9.05;;;2.70;;
34725;SDS011;20951;50.818;4.344;2023-09-07T12:18:40;6.00;;;2.63;;
34725;SDS011;20951;50.818;4.344;2023-09-07T12:21:05;7.65;;;2.47;;
34725;SDS011;20951;50.818;4.344;2023-09-07T12:23:32;6.07;;;2.83;;
34725;SDS011;20951;50.818;4.344;2023-09-07T12:25:57;9.43;;;2.50;;
34725;SDS011;20951;50.818;4.344;2023-09-07T12:28:23;5.35;;;2.90;;
34725;SDS011;20951;50.818;4.344;2023-09-07T12:30:49;4.85;;;2.35;;
34725;SDS011;20951;50.818;4.344;2023-09-07T12:33:15;7.05;;;2.60;;
34725;SDS011;20951;50.818;4.344;2023-09-07T12:35:40;9.20;;;2.90;;
34725;SDS011;20951;50.818;4.344;2023-09-07T12:38:06;5.43;;;2.70;;
34725;SDS011;20951;50.818;4.344;2023-09-07T12:40:34;6.38;;;2.42;;
34725;SDS011;20951;50.818;4.344;2023-09-07T12:43:00;7.00;;;2.63;;
34725;SDS011;20951;50.818;4.344;2023-09-07T12:45:25;6.03;;;2.80;;
34725;SDS011;20951;50.818;4.344;2023-09-07T12:47:51;7.63;;;2.70;;
34725;SDS011;20951;50.818;4.344;2023-09-07T12:50:17;9.07;;;3.17;;
34725;SDS011;20951;50.818;4.344;2023-09-07T12:52:43;5.30;;;2.80;;
34725;SDS011;20951;50.818;4.344;2023-09-07T12:55:08;4.22;;;2.30;;
34725;SDS011;20951;50.818;4.344;2023-09-07T12:57:35;4.68;;;2.67;;
34725;SDS011;20951;50.818;4.344;2023-09-07T13:00:04;3.70;;;2.40;;
34725;SDS011;20951;50.818;4.344;2023-09-07T13:02:31;5.88;;;2.70;;
34725;SDS011;20951;50.818;4.344;2023-09-07T13:04:57;8.32;;;3.05;;
34725;SDS011;20951;50.818;4.344;2023-09-07T13:07:22;5.65;;;2.72;;
34725;SDS011;20951;50.818;4.344;2023-09-07T13:09:48;7.00;;;2.80;;
34725;SDS011;20951;50.818;4.344;2023-09-07T13:12:14;6.63;;;2.72;;
34725;SDS011;20951;50.818;4.344;2023-09-07T13:14:40;4.60;;;2.58;;
34725;SDS011;20951;50.818;4.344;2023-09-07T13:17:09;5.32;;;2.60;;
34725;SDS011;20951;50.818;4.344;2023-09-07T13:19:37;4.47;;;2.67;;
34725;SDS011;20951;50.818;4.344;2023-09-07T13:22:03;6.30;;;2.65;;
34725;SDS011;20951;50.818;4.344;2023-09-07T13:24:31;7.68;;;2.78;;
34725;SDS011;20951;50.818;4.344;2023-09-07T13:26:57;9.90;;;2.90;;
34725;SDS011;20951;50.818;4.344;2023-09-07T13:29:23;6.47;;;2.67;;
34725;SDS011;20951;50.818;4.344;2023-09-07T13:31:49;6.53;;;2.63;;
34725;SDS011;20951;50.818;4.344;2023-09-07T13:34:17;6.18;;;2.60;;
34725;SDS011;20951;50.818;4.344;2023-09-07T13:36:43;5.03;;;2.55;;
34725;SDS011;20951;50.818;4.344;2023-09-07T13:39:09;7.97;;;2.83;;
34725;SDS011;20951;50.818;4.344;2023-09-07T13:41:34;7.28;;;2.85;;
34725;SDS011;20951;50.818;4.344;2023-09-07T13:44:00;5.57;;;2.60;;
34725;SDS011;20951;50.818;4.344;2023-09-07T13:46:27;5.50;;;2.60;;
34725;SDS011;20951;50.818;4.344;2023-09-07T13:48:53;5.82;;;2.70;;
34725;SDS011;20951;50.818;4.344;2023-09-07T13:51:20;5.82;;;2.60;;
34725;SDS011;20951;50.818;4.344;2023-09-07T13:53:47;6.10;;;2.60;;
34725;SDS011;20951;50.818;4.344;2023-09-07T13:56:14;8.70;;;3.10;;
34725;SDS011;20951;50.818;4.344;2023-09-07T13:58:40;7.75;;;2.85;;
34725;SDS011;20951;50.818;4.344;2023-09-07T14:01:06;4.90;;;2.65;;
34725;SDS011;20951;50.818;4.344;2023-09-07T14:03:34;6.72;;;2.70;;
34725;SDS011;20951;50.818;4.344;2023-09-07T14:06:02;7.35;;;2.58;;
34725;SDS011;20951;50.818;4.344;2023-09-07T14:08:27;5.95;;;2.72;;
34725;SDS011;20951;50.818;4.344;2023-09-07T14:10:55;5.30;;;2.30;;
34725;SDS011;20951;50.818;4.344;2023-09-07T14:13:21;7.80;;;2.40;;
34725;SDS011;20951;50.818;4.344;2023-09-07T14:15:47;5.88;;;2.72;;
34725;SDS011;20951;50.818;4.344;2023-09-07T14:18:13;11.60;;;2.67;;
34725;SDS011;20951;50.818;4.344;2023-09-07T14:20:38;6.75;;;2.40;;
34725;SDS011;20951;50.818;4.344;2023-09-07T14:23:04;4.45;;;2.22;;
34725;SDS011;20951;50.818;4.344;2023-09-07T14:25:31;7.28;;;2.70;;
34725;SDS011;20951;50.818;4.344;2023-09-07T14:28:01;4.57;;;2.65;;
34725;SDS011;20951;50.818;4.344;2023-09-07T14:30:27;6.30;;;2.50;;
34725;SDS011;20951;50.818;4.344;2023-09-07T14:32:53;5.10;;;2.35;;
34725;SDS011;20951;50.818;4.344;2023-09-07T14:35:18;6.88;;;2.33;;
34725;SDS011;20951;50.818;4.344;2023-09-07T14:37:44;6.68;;;2.35;;
34725;SDS011;20951;50.818;4.344;2023-09-07T14:40:17;7.07;;;2.50;;
34725;SDS011;20951;50.818;4.344;2023-09-07T14:42:44;3.88;;;2.42;;
34725;SDS011;20951;50.818;4.344;2023-09-07T14:45:09;6.47;;;2.60;;